Degelis, Canada
Current Conditions -  °F | °C
As of 10:53 AM on Wednesday 22 Oct 2014 (Local Time) from KFVE Reporting Station
Broken Clouds Broken Clouds  
Wind Chill: 34°   Ceiling: 1400
Heat Index: 41°   Visibility: 10mi
Dew Point: 33°   Wind: 12mph
Humidity: 73%   Direction: 40°NE
Pressure: 30.41"   Gusts: NA
Location:  47.55°N, 68.64°W
Report Text: KFVE 221453Z AUTO 04010KT 10SM BKN014 05/01 A3041 RMK AO2 SLP305 T00500006 50001
Loading
Personal Weather Stations






























Interactive Weather Map
Tropical Storm Tracking
New forecast layout! Learn more

10-Day Weather Forecast

Advertisements
Track Severe Weather on mobile